createdAt,value
2023-05-22T00:01:55.991Z,20.70
2023-05-22T00:04:22.815Z,20.70
2023-05-22T00:06:49.711Z,20.70
2023-05-22T00:09:16.496Z,20.80
2023-05-22T00:11:43.428Z,20.70
2023-05-22T00:14:10.217Z,20.70
2023-05-22T00:16:36.981Z,20.70
2023-05-22T00:19:04.265Z,20.70
2023-05-22T00:21:34.721Z,20.70
2023-05-22T00:24:02.106Z,20.70
2023-05-22T00:26:28.829Z,20.60
2023-05-22T00:28:55.716Z,20.60
2023-05-22T00:31:22.843Z,20.50
2023-05-22T00:33:49.890Z,20.50
2023-05-22T00:36:18.474Z,20.50
2023-05-22T00:38:46.183Z,20.40
2023-05-22T00:41:13.315Z,20.40
2023-05-22T00:43:40.147Z,20.30
2023-05-22T00:46:09.826Z,20.30
2023-05-22T00:48:36.612Z,20.20
2023-05-22T00:51:03.855Z,20.20
2023-05-22T00:53:31.364Z,20.20
2023-05-22T00:55:59.658Z,20.20
2023-05-22T00:58:27.384Z,20.20
2023-05-22T01:00:55.501Z,20.20
2023-05-22T01:03:26.897Z,20.10
2023-05-22T01:05:54.672Z,20.20
2023-05-22T01:08:21.723Z,20.10
2023-05-22T01:10:52.790Z,20.10
2023-05-22T01:13:29.955Z,20.10
2023-05-22T01:15:56.648Z,20.10
2023-05-22T01:18:46.343Z,20.10
2023-05-22T01:21:31.029Z,20.00
2023-05-22T01:24:18.920Z,20.00
2023-05-22T01:26:54.031Z,20.00
2023-05-22T01:29:44.351Z,20.00
2023-05-22T01:32:16.592Z,20.00
2023-05-22T01:34:46.459Z,19.90
2023-05-22T01:37:14.063Z,19.90
2023-05-22T01:39:41.658Z,19.90
2023-05-22T01:42:08.958Z,19.90
2023-05-22T01:44:35.678Z,19.80
2023-05-22T01:47:05.210Z,19.80
2023-05-22T01:49:33.951Z,19.80
2023-05-22T01:52:30.804Z,19.90
2023-05-22T01:55:09.632Z,19.80
2023-05-22T01:57:47.561Z,19.80
2023-05-22T02:00:16.472Z,19.70
2023-05-22T02:02:53.455Z,19.70
2023-05-22T02:05:23.277Z,19.80
2023-05-22T02:07:50.740Z,19.70
2023-05-22T02:10:19.979Z,19.80
2023-05-22T02:12:47.096Z,19.70
2023-05-22T02:15:14.355Z,19.80
2023-05-22T02:17:41.790Z,19.70
2023-05-22T02:20:15.300Z,19.80
2023-05-22T02:22:45.386Z,19.80
2023-05-22T02:25:14.541Z,19.80
2023-05-22T02:27:49.789Z,19.80
2023-05-22T02:30:16.562Z,19.80
2023-05-22T02:32:45.767Z,19.80
2023-05-22T02:35:12.532Z,19.80
2023-05-22T02:37:39.242Z,19.80
2023-05-22T02:40:07.291Z,19.80
2023-05-22T02:42:34.616Z,19.80
2023-05-22T02:45:02.716Z,19.80
2023-05-22T02:47:29.950Z,19.80
2023-05-22T02:49:57.880Z,19.80
2023-05-22T02:52:25.028Z,19.80
2023-05-22T02:54:51.842Z,19.70
2023-05-22T02:57:19.596Z,19.80
2023-05-22T02:59:46.710Z,19.70
2023-05-22T03:02:15.276Z,19.70
2023-05-22T03:04:42.060Z,19.70
2023-05-22T03:07:09.152Z,19.70
2023-05-22T03:09:36.360Z,19.70
2023-05-22T03:12:03.368Z,19.70
2023-05-22T03:14:30.294Z,19.70
2023-05-22T03:16:58.890Z,19.70
2023-05-22T03:19:26.560Z,19.70
2023-05-22T03:21:53.799Z,19.70
2023-05-22T03:24:21.927Z,19.70
2023-05-22T03:26:48.790Z,19.70
2023-05-22T03:29:21.558Z,19.70
2023-05-22T03:31:48.292Z,19.70
2023-05-22T03:34:16.571Z,19.70
2023-05-22T03:36:46.132Z,19.70
2023-05-22T03:39:15.284Z,19.70
2023-05-22T03:41:50.034Z,19.70
2023-05-22T03:44:16.779Z,19.70
2023-05-22T03:46:46.268Z,19.70
2023-05-22T03:49:13.040Z,19.70
2023-05-22T03:51:39.755Z,19.70
2023-05-22T03:54:06.464Z,19.70
2023-05-22T03:56:33.162Z,19.70
2023-05-22T03:58:59.901Z,19.70
2023-05-22T04:01:27.338Z,19.60
2023-05-22T04:03:54.022Z,19.60
2023-05-22T04:06:23.556Z,19.60
2023-05-22T04:08:50.272Z,19.60
2023-05-22T04:11:18.409Z,19.60
2023-05-22T04:13:45.373Z,19.60
2023-05-22T04:16:12.148Z,19.60
2023-05-22T04:18:38.908Z,19.60
2023-05-22T04:21:08.138Z,19.50
2023-05-22T04:23:35.180Z,19.60
2023-05-22T04:26:04.376Z,19.60
2023-05-22T04:28:31.025Z,19.60
2023-05-22T04:30:57.797Z,19.50
2023-05-22T04:33:24.762Z,19.60
2023-05-22T04:35:51.958Z,19.60
2023-05-22T04:38:18.811Z,19.60
2023-05-22T04:40:45.660Z,19.60
2023-05-22T04:43:12.610Z,19.60
2023-05-22T04:45:39.354Z,19.70
2023-05-22T04:48:06.453Z,19.70
2023-05-22T04:50:35.992Z,19.70
2023-05-22T04:53:05.855Z,19.70
2023-05-22T04:55:35.441Z,19.70
2023-05-22T04:58:02.747Z,19.70
2023-05-22T05:00:29.954Z,19.70
2023-05-22T05:02:57.518Z,19.80
2023-05-22T05:05:24.949Z,19.80
2023-05-22T05:07:53.151Z,19.80
2023-05-22T05:10:19.918Z,19.80
2023-05-22T05:12:46.719Z,19.90
2023-05-22T05:15:13.649Z,19.90
2023-05-22T05:17:41.087Z,20.00
2023-05-22T05:20:08.796Z,20.00
2023-05-22T05:22:35.946Z,20.10
2023-05-22T05:25:05.502Z,20.10
2023-05-22T05:27:32.852Z,20.20
2023-05-22T05:30:00.154Z,20.30
2023-05-22T05:32:38.664Z,20.30
2023-05-22T05:35:18.084Z,20.30
2023-05-22T05:37:48.828Z,20.40
2023-05-22T05:40:16.196Z,20.50
2023-05-22T05:42:47.684Z,20.50
2023-05-22T05:45:18.014Z,20.60
2023-05-22T05:47:45.210Z,20.60
2023-05-22T05:50:15.397Z,20.70
2023-05-22T05:52:42.679Z,20.80
2023-05-22T05:55:14.305Z,20.80
2023-05-22T05:57:41.560Z,21.00
2023-05-22T06:00:13.495Z,21.00
2023-05-22T06:02:43.600Z,21.20
2023-05-22T06:05:29.356Z,21.30
2023-05-22T06:08:06.151Z,21.40
2023-05-22T06:10:33.073Z,21.50
2023-05-22T06:13:12.401Z,21.60
2023-05-22T06:15:40.364Z,21.70
2023-05-22T06:18:07.662Z,21.80
2023-05-22T06:20:36.008Z,21.90
2023-05-22T06:23:03.028Z,22.00
2023-05-22T06:25:30.302Z,22.10
2023-05-22T06:27:57.992Z,22.10
2023-05-22T06:30:38.988Z,22.30
2023-05-22T06:33:14.578Z,22.40
2023-05-22T06:35:42.180Z,22.50
2023-05-22T06:38:09.339Z,22.60
2023-05-22T06:40:37.438Z,22.70
2023-05-22T06:43:20.062Z,22.90
2023-05-22T06:45:54.293Z,22.90
2023-05-22T06:48:35.826Z,23.10
2023-05-22T06:51:10.933Z,23.30
2023-05-22T06:53:39.624Z,23.50
2023-05-22T06:56:12.325Z,23.70
2023-05-22T06:59:06.216Z,24.00
2023-05-22T07:01:53.628Z,24.30
2023-05-22T07:04:30.987Z,24.50
2023-05-22T07:07:01.244Z,24.70
2023-05-22T07:09:28.635Z,25.00
2023-05-22T07:11:55.476Z,25.20
2023-05-22T07:14:22.975Z,25.40
2023-05-22T07:16:50.450Z,25.60
2023-05-22T07:19:23.208Z,25.80
2023-05-22T07:21:49.957Z,25.90
2023-05-22T07:24:19.196Z,26.00
2023-05-22T07:26:46.675Z,26.10
2023-05-22T07:29:14.264Z,26.20
2023-05-22T07:31:42.131Z,26.20
2023-05-22T07:34:09.340Z,26.40
2023-05-22T07:36:36.112Z,26.50
2023-05-22T07:39:05.033Z,26.70
2023-05-22T07:41:36.107Z,26.90
2023-05-22T07:44:03.122Z,27.10
2023-05-22T07:46:35.561Z,27.40
2023-05-22T07:49:10.825Z,27.60
2023-05-22T07:51:40.988Z,27.80
2023-05-22T07:54:08.369Z,28.10
2023-05-22T07:56:40.596Z,28.30
2023-05-22T07:59:09.158Z,28.60
2023-05-22T08:01:37.938Z,28.80
2023-05-22T08:04:05.827Z,29.10
2023-05-22T08:06:35.001Z,29.30
2023-05-22T08:09:02.408Z,29.60
2023-05-22T08:11:29.221Z,29.70
2023-05-22T08:13:56.292Z,29.90
2023-05-22T08:16:23.221Z,30.00
2023-05-22T08:18:50.451Z,30.10
2023-05-22T08:21:17.209Z,30.10
2023-05-22T08:23:43.990Z,30.20
2023-05-22T08:26:10.767Z,30.40
2023-05-22T08:28:41.869Z,30.50
2023-05-22T08:31:08.651Z,30.60
2023-05-22T08:33:35.429Z,30.80
2023-05-22T08:36:02.381Z,30.90
2023-05-22T08:38:29.183Z,31.00
2023-05-22T08:40:57.837Z,31.20
2023-05-22T08:43:24.727Z,31.30
2023-05-22T08:46:08.584Z,31.30
2023-05-22T08:48:35.342Z,31.40
2023-05-22T08:51:06.148Z,31.50
2023-05-22T08:53:37.062Z,31.60
2023-05-22T08:56:06.834Z,31.70
2023-05-22T08:58:35.855Z,31.70
2023-05-22T09:01:04.366Z,31.70
2023-05-22T09:03:34.907Z,31.70
2023-05-22T09:06:02.190Z,31.70
2023-05-22T09:08:29.101Z,31.60
2023-05-22T09:10:56.336Z,31.50
2023-05-22T09:13:26.500Z,31.50
2023-05-22T09:15:57.681Z,31.50
2023-05-22T09:18:27.817Z,31.40
2023-05-22T09:20:57.535Z,31.50
2023-05-22T09:23:27.260Z,31.60
2023-05-22T09:25:58.432Z,31.50
2023-05-22T09:28:26.740Z,31.60
2023-05-22T09:30:55.399Z,31.60
2023-05-22T09:33:23.788Z,31.70
2023-05-22T09:35:54.561Z,31.70
2023-05-22T09:38:29.271Z,31.80
2023-05-22T09:40:56.953Z,31.80
2023-05-22T09:43:27.498Z,31.90
2023-05-22T09:46:01.777Z,32.00
2023-05-22T09:48:29.030Z,32.10
2023-05-22T09:50:57.120Z,32.30
2023-05-22T09:53:29.956Z,32.30
2023-05-22T09:56:00.164Z,32.40
2023-05-22T09:58:27.746Z,32.70
2023-05-22T10:00:56.404Z,32.90
2023-05-22T10:03:24.505Z,33.10
2023-05-22T10:05:54.146Z,33.30
2023-05-22T10:08:28.806Z,33.40
2023-05-22T10:10:56.155Z,33.70
2023-05-22T10:13:25.123Z,33.80
2023-05-22T10:15:53.234Z,34.00
2023-05-22T10:18:20.255Z,34.20
2023-05-22T10:20:48.209Z,34.30
2023-05-22T10:23:16.529Z,34.40
2023-05-22T10:25:46.818Z,34.50
2023-05-22T10:28:21.369Z,34.50
2023-05-22T10:30:56.372Z,34.60
2023-05-22T10:33:36.456Z,34.70
2023-05-22T10:36:08.623Z,34.60
2023-05-22T10:38:56.430Z,34.60
2023-05-22T10:41:24.132Z,34.60
2023-05-22T10:43:51.380Z,34.60
2023-05-22T10:46:18.753Z,34.60
2023-05-22T10:48:47.981Z,34.60
2023-05-22T10:51:22.828Z,34.50
2023-05-22T10:53:57.837Z,34.50
2023-05-22T10:56:32.124Z,34.50
2023-05-22T10:59:08.144Z,34.40
2023-05-22T11:01:37.831Z,34.20
2023-05-22T11:04:12.135Z,34.00
2023-05-22T11:07:02.436Z,33.90
2023-05-22T11:09:34.139Z,33.70
2023-05-22T11:12:20.539Z,33.50
2023-05-22T11:14:53.387Z,33.40
2023-05-22T11:17:23.435Z,33.20
2023-05-22T11:20:12.033Z,33.10
2023-05-22T11:22:42.548Z,32.90
2023-05-22T11:25:17.796Z,32.90
2023-05-22T11:27:46.472Z,32.80
2023-05-22T11:30:14.159Z,32.70
2023-05-22T11:32:45.712Z,32.70
2023-05-22T11:35:19.243Z,32.60
2023-05-22T11:37:46.236Z,32.60
2023-05-22T11:40:15.818Z,32.50
2023-05-22T11:42:42.678Z,32.40
2023-05-22T11:45:09.939Z,32.30
2023-05-22T11:47:37.609Z,32.20
2023-05-22T11:50:06.697Z,32.10
2023-05-22T11:52:34.897Z,32.10
2023-05-22T11:55:02.164Z,32.00
2023-05-22T11:57:28.948Z,32.00
2023-05-22T11:59:56.018Z,31.90
2023-05-22T12:02:22.822Z,31.90
2023-05-22T12:04:54.589Z,31.90
2023-05-22T12:07:22.467Z,31.90
2023-05-22T12:09:49.495Z,31.90
2023-05-22T12:12:16.406Z,31.90
2023-05-22T12:14:47.311Z,31.90
2023-05-22T12:17:14.610Z,31.90
2023-05-22T12:19:42.305Z,31.90
2023-05-22T12:22:10.108Z,31.90
2023-05-22T12:24:41.728Z,31.90
2023-05-22T12:27:12.202Z,31.90
2023-05-22T12:29:39.613Z,32.00
2023-05-22T12:32:11.352Z,31.90
2023-05-22T12:34:46.583Z,31.90
2023-05-22T12:37:25.921Z,31.90
2023-05-22T12:40:00.056Z,31.80
2023-05-22T12:42:27.768Z,31.80
2023-05-22T12:44:55.980Z,31.80
2023-05-22T12:47:24.045Z,31.80
2023-05-22T12:49:51.325Z,31.70
2023-05-22T12:52:18.156Z,31.70
2023-05-22T12:54:45.059Z,31.70
2023-05-22T12:57:11.826Z,31.60
2023-05-22T12:59:38.582Z,31.60
2023-05-22T13:02:05.780Z,31.60
2023-05-22T13:04:33.019Z,31.50
2023-05-22T13:06:59.811Z,31.50
2023-05-22T13:09:26.663Z,31.50
2023-05-22T13:11:53.476Z,31.40
2023-05-22T13:14:20.266Z,31.40
2023-05-22T13:16:46.967Z,31.30
2023-05-22T13:19:13.828Z,31.40
2023-05-22T13:21:40.581Z,31.20
2023-05-22T13:24:07.770Z,31.20
2023-05-22T13:26:34.454Z,31.10
2023-05-22T13:29:01.149Z,31.00
2023-05-22T13:31:28.093Z,31.00
2023-05-22T13:33:54.816Z,31.00
2023-05-22T13:36:21.724Z,31.00
2023-05-22T13:38:48.528Z,31.00
2023-05-22T13:41:15.570Z,30.90
2023-05-22T13:43:42.292Z,30.90
2023-05-22T13:46:09.057Z,30.90
2023-05-22T13:48:35.800Z,31.00
2023-05-22T13:51:02.768Z,30.80
2023-05-22T13:53:29.490Z,30.90
2023-05-22T13:55:56.289Z,30.70
2023-05-22T13:58:23.076Z,30.70
2023-05-22T14:00:49.876Z,30.80
2023-05-22T14:03:17.585Z,30.80
2023-05-22T14:05:45.476Z,30.70
2023-05-22T14:08:12.637Z,30.80
2023-05-22T14:10:39.653Z,30.70
2023-05-22T14:13:06.476Z,30.70
2023-05-22T14:15:33.185Z,30.70
2023-05-22T14:18:00.313Z,30.70
2023-05-22T14:20:27.074Z,30.70
2023-05-22T14:22:57.817Z,30.70
2023-05-22T14:25:27.753Z,30.70
2023-05-22T14:27:54.432Z,30.70
2023-05-22T14:30:21.224Z,30.70
2023-05-22T14:32:48.616Z,30.70
2023-05-22T14:35:16.693Z,30.70
2023-05-22T14:37:44.002Z,30.70
2023-05-22T14:40:10.902Z,30.70
2023-05-22T14:42:37.826Z,30.60
2023-05-22T14:45:05.061Z,30.60
2023-05-22T14:47:31.800Z,30.60
2023-05-22T14:50:14.182Z,30.50
2023-05-22T14:52:44.617Z,30.50
2023-05-22T14:55:11.521Z,30.50
2023-05-22T14:57:38.209Z,30.50
2023-05-22T15:00:15.186Z,30.40
2023-05-22T15:02:41.978Z,30.40
2023-05-22T15:05:09.558Z,30.40
2023-05-22T15:07:43.788Z,30.30
2023-05-22T15:10:12.383Z,30.20
2023-05-22T15:12:39.119Z,30.20
2023-05-22T15:15:06.334Z,30.10
2023-05-22T15:17:33.090Z,30.00
2023-05-22T15:19:59.775Z,30.00
2023-05-22T15:22:26.447Z,29.90
2023-05-22T15:25:07.310Z,29.90
2023-05-22T15:27:34.938Z,29.90
2023-05-22T15:30:02.609Z,29.80
2023-05-22T15:32:30.676Z,29.80
2023-05-22T15:34:57.533Z,29.80
2023-05-22T15:37:24.267Z,29.80
2023-05-22T15:39:50.947Z,29.70
2023-05-22T15:42:17.755Z,29.70
2023-05-22T15:44:44.560Z,29.60
2023-05-22T15:47:11.303Z,29.60
2023-05-22T15:49:37.926Z,29.60
2023-05-22T15:52:04.641Z,29.60
2023-05-22T15:54:31.391Z,29.60
2023-05-22T15:56:58.229Z,29.60
2023-05-22T15:59:24.906Z,29.50
2023-05-22T16:01:51.620Z,29.50
2023-05-22T16:04:18.448Z,29.50
2023-05-22T16:06:45.159Z,29.50
2023-05-22T16:09:12.544Z,29.40
2023-05-22T16:11:39.362Z,29.40
2023-05-22T16:14:06.156Z,29.40
2023-05-22T16:16:32.912Z,29.40
2023-05-22T16:18:59.603Z,29.40
2023-05-22T16:21:26.422Z,29.40
2023-05-22T16:23:53.137Z,29.40
2023-05-22T16:26:19.995Z,29.30
2023-05-22T16:28:46.684Z,29.30
2023-05-22T16:31:17.034Z,29.30
2023-05-22T16:33:46.001Z,29.30
2023-05-22T16:36:12.736Z,29.20
2023-05-22T16:38:39.440Z,29.10
2023-05-22T16:41:06.138Z,29.20
2023-05-22T16:43:32.891Z,29.00
2023-05-22T16:45:59.557Z,28.90
2023-05-22T16:48:26.267Z,28.70
2023-05-22T16:50:53.007Z,28.60
2023-05-22T16:53:19.764Z,28.40
2023-05-22T16:55:46.514Z,28.20
2023-05-22T16:58:13.972Z,28.00
2023-05-22T17:00:41.403Z,27.80
2023-05-22T17:03:09.798Z,27.60
2023-05-22T17:05:37.387Z,27.40
2023-05-22T17:08:04.316Z,27.30
2023-05-22T17:10:31.147Z,27.10
2023-05-22T17:12:57.901Z,27.00
2023-05-22T17:15:24.616Z,26.90
2023-05-22T17:17:51.454Z,26.90
2023-05-22T17:20:18.918Z,26.80
2023-05-22T17:22:45.657Z,26.70
2023-05-22T17:25:13.955Z,26.60
2023-05-22T17:27:40.749Z,26.60
2023-05-22T17:30:08.337Z,26.50
2023-05-22T17:32:35.661Z,26.50
2023-05-22T17:35:02.483Z,26.40
2023-05-22T17:37:29.178Z,26.40
2023-05-22T17:39:55.887Z,26.40
2023-05-22T17:42:22.907Z,26.40
2023-05-22T17:44:49.753Z,26.40
2023-05-22T17:47:16.625Z,26.30
2023-05-22T17:49:43.336Z,26.20
2023-05-22T17:52:11.033Z,26.20
2023-05-22T17:54:37.667Z,26.20
2023-05-22T17:57:04.477Z,26.10
2023-05-22T17:59:32.633Z,26.10
2023-05-22T18:01:59.474Z,26.10
2023-05-22T18:04:26.302Z,26.00
2023-05-22T18:06:53.052Z,26.00
2023-05-22T18:09:19.811Z,26.00
2023-05-22T18:11:46.610Z,26.00
2023-05-22T18:14:13.376Z,25.90
2023-05-22T18:16:40.239Z,25.90
2023-05-22T18:19:07.039Z,25.90
2023-05-22T18:21:33.834Z,25.90
2023-05-22T18:24:00.705Z,25.90
2023-05-22T18:26:27.473Z,25.90
2023-05-22T18:28:54.133Z,25.80
2023-05-22T18:31:20.928Z,25.80
2023-05-22T18:33:47.657Z,25.70
2023-05-22T18:36:14.499Z,25.70
2023-05-22T18:38:41.504Z,25.70
2023-05-22T18:41:08.189Z,25.70
2023-05-22T18:43:35.042Z,25.60
2023-05-22T18:46:01.717Z,25.60
2023-05-22T18:48:29.080Z,25.50
2023-05-22T18:50:57.595Z,25.50
2023-05-22T18:53:27.280Z,25.40
2023-05-22T18:55:54.304Z,25.40
2023-05-22T18:58:21.555Z,25.40
2023-05-22T19:00:48.650Z,25.40
2023-05-22T19:03:15.491Z,25.30
2023-05-22T19:05:43.006Z,25.30
2023-05-22T19:08:09.817Z,25.30
2023-05-22T19:10:36.655Z,25.20
2023-05-22T19:13:03.787Z,25.20
2023-05-22T19:15:30.590Z,25.20
2023-05-22T19:17:57.465Z,25.10
2023-05-22T19:20:24.216Z,25.10
2023-05-22T19:22:51.472Z,25.10
2023-05-22T19:25:18.540Z,25.00
2023-05-22T19:27:45.830Z,25.00
2023-05-22T19:30:15.209Z,24.90
2023-05-22T19:32:43.575Z,24.90
2023-05-22T19:35:11.225Z,24.80
2023-05-22T19:37:38.134Z,24.70
2023-05-22T19:40:05.952Z,24.70
2023-05-22T19:42:32.904Z,24.60
2023-05-22T19:44:59.589Z,24.60
2023-05-22T19:47:27.121Z,24.50
2023-05-22T19:49:53.836Z,24.40
2023-05-22T19:52:20.582Z,24.40
2023-05-22T19:54:47.401Z,24.30
2023-05-22T19:57:14.155Z,24.30
2023-05-22T19:59:40.929Z,24.20
2023-05-22T20:02:07.799Z,24.10
2023-05-22T20:04:34.652Z,24.00
2023-05-22T20:07:03.676Z,24.00
2023-05-22T20:09:30.396Z,23.90
2023-05-22T20:11:57.061Z,23.90
2023-05-22T20:14:23.861Z,23.80
2023-05-22T20:16:51.048Z,23.80
2023-05-22T20:19:18.013Z,23.70
2023-05-22T20:21:44.757Z,23.60
2023-05-22T20:24:20.667Z,23.60
2023-05-22T20:26:47.822Z,23.50
2023-05-22T20:29:14.638Z,23.50
2023-05-22T20:31:41.502Z,23.40
2023-05-22T20:34:09.443Z,23.40
2023-05-22T20:36:36.513Z,23.30
2023-05-22T20:39:03.586Z,23.30
2023-05-22T20:41:30.302Z,23.20
2023-05-22T20:43:58.501Z,23.20
2023-05-22T20:46:26.544Z,23.10
2023-05-22T20:48:53.624Z,23.10
2023-05-22T20:51:20.699Z,23.00
2023-05-22T20:53:52.441Z,23.00
2023-05-22T20:56:19.216Z,22.90
2023-05-22T20:58:46.035Z,22.90
2023-05-22T21:01:12.879Z,22.80
2023-05-22T21:03:39.700Z,22.80
2023-05-22T21:06:06.494Z,22.70
2023-05-22T21:08:33.247Z,22.70
2023-05-22T21:11:00.023Z,22.60
2023-05-22T21:13:26.734Z,22.60
2023-05-22T21:15:53.454Z,22.60
2023-05-22T21:18:20.293Z,22.50
2023-05-22T21:20:46.987Z,22.50
2023-05-22T21:23:13.742Z,22.40
2023-05-22T21:25:40.628Z,22.40
2023-05-22T21:28:07.818Z,22.30
2023-05-22T21:30:34.694Z,22.30
2023-05-22T21:33:01.597Z,22.30
2023-05-22T21:35:28.428Z,22.20
2023-05-22T21:37:55.223Z,22.20
2023-05-22T21:40:21.983Z,22.10
2023-05-22T21:42:48.724Z,22.10
2023-05-22T21:45:15.672Z,22.10
2023-05-22T21:47:42.546Z,22.00
2023-05-22T21:50:09.680Z,22.00
2023-05-22T21:52:36.403Z,21.90
2023-05-22T21:55:03.874Z,21.90
2023-05-22T21:57:30.712Z,21.90
2023-05-22T21:59:57.452Z,21.80
2023-05-22T22:02:24.552Z,21.80
2023-05-22T22:04:51.401Z,21.80
2023-05-22T22:07:18.236Z,21.70
2023-05-22T22:09:45.027Z,21.70
2023-05-22T22:12:11.967Z,21.70
2023-05-22T22:14:38.737Z,21.60
2023-05-22T22:17:08.994Z,21.60
2023-05-22T22:19:36.122Z,21.50
2023-05-22T22:22:03.233Z,21.50
2023-05-22T22:24:30.098Z,21.50
2023-05-22T22:26:57.037Z,21.40
2023-05-22T22:29:23.785Z,21.40
2023-05-22T22:31:50.751Z,21.30
2023-05-22T22:34:17.512Z,21.30
2023-05-22T22:36:44.376Z,21.20
2023-05-22T22:39:11.153Z,21.20
2023-05-22T22:41:38.092Z,21.20
2023-05-22T22:44:04.765Z,21.10
2023-05-22T22:46:32.160Z,21.10
2023-05-22T22:49:01.553Z,21.10
2023-05-22T22:51:30.706Z,21.00
2023-05-22T22:53:58.293Z,21.00
2023-05-22T22:56:29.018Z,21.00
2023-05-22T22:58:58.705Z,20.90
2023-05-22T23:01:25.502Z,20.90
2023-05-22T23:03:52.451Z,20.90
2023-05-22T23:06:19.414Z,20.80
2023-05-22T23:08:46.327Z,20.80
2023-05-22T23:11:13.061Z,20.80
2023-05-22T23:13:41.149Z,20.80
2023-05-22T23:16:08.194Z,20.80
2023-05-22T23:18:35.374Z,20.80
2023-05-22T23:21:02.097Z,20.80
2023-05-22T23:23:28.895Z,20.70
2023-05-22T23:25:57.400Z,20.80
2023-05-22T23:28:25.480Z,20.70
2023-05-22T23:30:52.780Z,20.70
2023-05-22T23:33:19.563Z,20.60
2023-05-22T23:35:46.313Z,20.70
2023-05-22T23:38:13.156Z,20.60
2023-05-22T23:40:39.848Z,20.60
2023-05-22T23:43:06.574Z,20.50
2023-05-22T23:45:33.367Z,20.50
2023-05-22T23:48:00.157Z,20.50
2023-05-22T23:50:26.932Z,20.40
2023-05-22T23:52:54.068Z,20.40
2023-05-22T23:55:20.814Z,20.40
2023-05-22T23:57:47.535Z,20.30
